Time;durP1;ratioP1;P1;durP2;ratioP2;P2;SDS_P1;SDS_P2;PMS_P1;PMS_P2;Temp;Humidity;BMP_temperature;BMP_pressure;BME280_temperature;BME280_humidity;BME280_pressure;Samples;Min_cycle;Max_cycle;Signal;HPM_P1;HPM_P2
2021/09/17 00:00:12;;;;;;;6.25;5.50;;;12.70;99.90;;;;;;5051038;28;20025;-67
2021/09/17 00:02:38;;;;;;;7.15;5.93;;;12.60;99.90;;;;;;5050046;28;20093;-67
2021/09/17 00:05:05;;;;;;;5.70;4.47;;;12.70;99.90;;;;;;5049744;28;20028;-67
2021/09/17 00:07:31;;;;;;;6.68;5.15;;;12.70;99.90;;;;;;5048991;28;20116;-67
2021/09/17 00:09:56;;;;;;;5.07;4.53;;;12.70;99.90;;;;;;5051121;28;20115;-67
2021/09/17 00:12:22;;;;;;;5.25;4.30;;;12.60;99.90;;;;;;5047449;28;20462;-67
2021/09/17 00:14:50;;;;;;;5.20;4.70;;;12.60;99.90;;;;;;5052088;28;20060;-67
2021/09/17 00:17:15;;;;;;;6.65;5.10;;;12.70;99.90;;;;;;5051863;28;20055;-67
2021/09/17 00:19:41;;;;;;;5.47;4.70;;;12.60;99.90;;;;;;5050087;28;20459;-67
2021/09/17 00:22:07;;;;;;;5.85;4.78;;;12.60;99.90;;;;;;5047640;28;20025;-67
2021/09/17 00:24:32;;;;;;;5.53;4.93;;;12.50;99.90;;;;;;5050905;28;20017;-67
2021/09/17 00:26:59;;;;;;;4.90;4.50;;;12.50;99.90;;;;;;5050896;28;20413;-67
2021/09/17 00:29:24;;;;;;;4.75;4.18;;;12.60;99.90;;;;;;5051206;28;20115;-67
2021/09/17 00:31:51;;;;;;;7.90;4.32;;;12.60;99.90;;;;;;5045103;28;20180;-67
2021/09/17 00:34:16;;;;;;;8.77;4.28;;;12.60;99.90;;;;;;5051440;28;20033;-67
2021/09/17 00:36:42;;;;;;;4.35;3.95;;;12.60;99.90;;;;;;5049230;28;20405;-67
2021/09/17 00:39:12;;;;;;;5.45;4.30;;;12.70;99.90;;;;;;5051808;28;20036;-67
2021/09/17 00:41:39;;;;;;;;;;;12.70;99.90;;;;;;5050708;28;20102;-66
2021/09/17 00:44:04;;;;;;;6.75;4.18;;;12.70;99.90;;;;;;5050916;28;19952;-67
2021/09/17 00:46:30;;;;;;;4.82;4.05;;;12.70;99.90;;;;;;5046879;28;20075;-66
2021/09/17 00:48:55;;;;;;;4.03;3.60;;;12.70;99.90;;;;;;5051491;28;20036;-67
2021/09/17 00:51:21;;;;;;;5.75;4.38;;;12.70;99.90;;;;;;5049424;28;20040;-67
2021/09/17 00:53:47;;;;;;;5.90;4.20;;;12.70;99.90;;;;;;5051251;28;20021;-67
2021/09/17 00:56:13;;;;;;;4.63;4.20;;;12.80;99.90;;;;;;5048660;28;20025;-67
2021/09/17 00:58:39;;;;;;;5.00;4.30;;;12.70;99.90;;;;;;5050226;28;20036;-67
2021/09/17 01:01:04;;;;;;;3.83;3.53;;;12.70;99.90;;;;;;5050256;28;20021;-67
2021/09/17 01:03:30;;;;;;;4.10;3.60;;;12.70;99.90;;;;;;5050029;28;20032;-67
2021/09/17 01:05:59;;;;;;;6.18;5.32;;;12.70;99.90;;;;;;5049850;28;20041;-67
2021/09/17 01:08:25;;;;;;;5.93;5.03;;;12.80;99.90;;;;;;5050100;28;20043;-67
2021/09/17 01:10:51;;;;;;;5.63;4.97;;;12.80;99.90;;;;;;5050083;28;20455;-67
2021/09/17 01:13:18;;;;;;;5.93;5.32;;;12.80;99.90;;;;;;5049457;28;20465;-67
2021/09/17 01:15:43;;;;;;;7.55;5.57;;;12.80;99.90;;;;;;5050615;28;20024;-67
2021/09/17 01:18:09;;;;;;;5.20;4.70;;;12.80;99.90;;;;;;5050596;28;20108;-67
2021/09/17 01:20:35;;;;;;;6.65;4.43;;;12.90;99.90;;;;;;5048345;28;20289;-67
2021/09/17 01:23:00;;;;;;;5.32;4.53;;;12.90;99.90;;;;;;5048828;28;20506;-67
2021/09/17 01:25:26;;;;;;;4.82;4.15;;;12.90;99.90;;;;;;5048255;28;20043;-67
2021/09/17 01:27:52;;;;;;;6.97;5.30;;;12.90;99.90;;;;;;5047086;28;20521;-67
2021/09/17 01:30:20;;;;;;;7.18;5.10;;;13.00;99.90;;;;;;5050178;28;20078;-67
2021/09/17 01:32:45;;;;;;;5.30;4.80;;;13.00;99.90;;;;;;5048194;28;20766;-67
2021/09/17 01:35:13;;;;;;;4.95;4.50;;;13.00;99.90;;;;;;5050655;28;20104;-67
2021/09/17 01:37:40;;;;;;;9.07;4.32;;;13.00;99.90;;;;;;5031763;28;20095;-67
2021/09/17 01:40:07;;;;;;;5.45;3.90;;;13.10;99.90;;;;;;5041356;28;20444;-67
2021/09/17 01:42:33;;;;;;;5.45;3.58;;;13.10;99.90;;;;;;5045622;28;20451;-66
2021/09/17 01:44:59;;;;;;;4.47;4.07;;;13.10;99.90;;;;;;5038629;28;20127;-67
2021/09/17 01:47:24;;;;;;;6.13;4.13;;;13.20;99.90;;;;;;5051343;28;20033;-67
2021/09/17 01:49:50;;;;;;;5.45;3.97;;;13.20;99.90;;;;;;5052291;28;20064;-67
2021/09/17 01:52:16;;;;;;;6.35;3.75;;;13.20;99.90;;;;;;5035544;28;20033;-66
2021/09/17 01:54:42;;;;;;;7.30;4.60;;;13.20;99.90;;;;;;5038914;28;20037;-67
2021/09/17 01:57:08;;;;;;;5.22;4.72;;;13.10;99.90;;;;;;5036481;28;20104;-66
2021/09/17 01:59:34;;;;;;;5.32;4.90;;;13.10;99.90;;;;;;5031187;28;20026;-67
2021/09/17 02:01:59;;;;;;;5.90;5.30;;;13.20;99.90;;;;;;5032106;28;20033;-67
2021/09/17 02:04:25;;;;;;;6.25;5.65;;;13.20;99.90;;;;;;5031154;28;20028;-66
2021/09/17 02:06:51;;;;;;;8.05;5.38;;;13.20;99.90;;;;;;5030832;28;20493;-67
2021/09/17 02:09:16;;;;;;;5.82;4.72;;;13.20;99.90;;;;;;5031697;28;20100;-67
2021/09/17 02:11:42;;;;;;;6.68;4.80;;;13.20;99.90;;;;;;5037177;28;20037;-67
2021/09/17 02:14:08;;;;;;;6.72;4.72;;;13.20;99.90;;;;;;5050518;28;20064;-67
2021/09/17 02:16:33;;;;;;;8.00;4.85;;;13.20;99.90;;;;;;5050783;28;20063;-67
2021/09/17 02:18:59;;;;;;;8.05;6.45;;;13.20;99.90;;;;;;5051109;28;20031;-67
2021/09/17 02:21:25;;;;;;;7.10;5.80;;;13.20;99.90;;;;;;5035471;28;20458;-67
2021/09/17 02:23:51;;;;;;;7.78;6.20;;;13.20;99.90;;;;;;5047910;28;20122;-67
2021/09/17 02:26:18;;;;;;;6.15;5.55;;;13.20;99.90;;;;;;5043591;28;20037;-67
2021/09/17 02:28:44;;;;;;;8.38;6.13;;;13.20;99.90;;;;;;5031504;28;20025;-67
2021/09/17 02:31:10;;;;;;;9.43;7.03;;;13.20;99.90;;;;;;5031552;28;20121;-67
2021/09/17 02:33:36;;;;;;;6.95;5.78;;;13.20;99.90;;;;;;5031042;28;20030;-67
2021/09/17 02:36:02;;;;;;;8.88;5.72;;;13.20;99.90;;;;;;5031707;28;20079;-67
2021/09/17 02:38:28;;;;;;;6.88;5.50;;;13.20;99.90;;;;;;5030990;28;20030;-67
2021/09/17 02:40:54;;;;;;;6.70;5.40;;;13.30;99.90;;;;;;5032518;28;20370;-66
2021/09/17 02:43:20;;;;;;;5.93;5.40;;;13.30;99.90;;;;;;5030910;28;20053;-67
2021/09/17 02:45:46;;;;;;;5.75;5.20;;;13.30;99.90;;;;;;5041712;28;20060;-66
2021/09/17 02:48:12;;;;;;;7.10;4.97;;;13.30;99.90;;;;;;5055665;28;20517;-67
2021/09/17 02:50:37;;;;;;;7.60;5.40;;;13.30;99.90;;;;;;5054003;28;20852;-67
2021/09/17 02:53:05;;;;;;;8.00;5.72;;;13.20;99.90;;;;;;5055418;28;20029;-67
2021/09/17 02:55:31;;;;;;;7.18;5.10;;;13.30;99.90;;;;;;5052950;28;20052;-67
2021/09/17 02:57:56;;;;;;;5.35;4.90;;;13.20;99.90;;;;;;5035372;28;20057;-67
2021/09/17 03:00:22;;;;;;;6.05;5.45;;;13.30;99.90;;;;;;5034689;28;20032;-67
2021/09/17 03:02:48;;;;;;;9.25;6.90;;;13.20;99.90;;;;;;5035659;28;20075;-66
2021/09/17 03:05:14;;;;;;;7.53;6.65;;;13.30;99.90;;;;;;5035419;28;20463;-67
2021/09/17 03:07:39;;;;;;;9.77;6.78;;;13.30;99.90;;;;;;5053931;28;20029;-67
2021/09/17 03:10:06;;;;;;;6.97;6.22;;;13.30;99.90;;;;;;5055096;28;20029;-66
2021/09/17 03:12:32;;;;;;;8.57;6.53;;;13.20;99.90;;;;;;5035364;28;20029;-66
2021/09/17 03:14:58;;;;;;;8.32;6.47;;;13.20;99.90;;;;;;5035226;28;20030;-67
2021/09/17 03:17:24;;;;;;;9.23;7.18;;;13.20;99.90;;;;;;5034116;28;20490;-67
2021/09/17 03:19:49;;;;;;;8.93;7.03;;;13.20;99.90;;;;;;5047344;28;20391;-67
2021/09/17 03:22:15;;;;;;;7.43;5.90;;;13.20;99.90;;;;;;5054510;28;20033;-67
2021/09/17 03:24:41;;;;;;;9.25;6.55;;;13.20;99.90;;;;;;5052406;28;20032;-67
2021/09/17 03:27:06;;;;;;;7.40;6.43;;;13.10;99.90;;;;;;5040195;28;20362;-67
2021/09/17 03:29:33;;;;;;;6.95;6.25;;;13.20;99.90;;;;;;5034194;28;20029;-67
2021/09/17 03:31:59;;;;;;;7.63;4.82;;;13.10;99.90;;;;;;5034538;28;20483;-67
2021/09/17 03:34:25;;;;;;;4.25;3.90;;;13.20;99.90;;;;;;5033786;28;20163;-67
2021/09/17 03:36:51;;;;;;;4.07;3.53;;;13.20;99.90;;;;;;5037202;28;20104;-67
2021/09/17 03:39:17;;;;;;;6.35;3.60;;;13.20;99.90;;;;;;5034379;28;20030;-67
2021/09/17 03:41:47;;;;;;;5.78;3.85;;;13.20;99.90;;;;;;5034660;28;20044;-67
2021/09/17 03:44:14;;;;;;;9.52;4.95;;;13.20;99.90;;;;;;5034589;28;20450;-67
2021/09/17 03:46:41;;;;;;;7.05;4.10;;;13.20;99.90;;;;;;5053323;28;20090;-67
2021/09/17 03:49:06;;;;;;;7.93;3.90;;;13.20;99.90;;;;;;5035151;28;20105;-67
2021/09/17 03:51:32;;;;;;;8.70;4.50;;;13.20;99.90;;;;;;5038625;28;20036;-67
2021/09/17 03:53:58;;;;;;;5.53;4.00;;;13.20;99.90;;;;;;5054741;28;20082;-67
2021/09/17 03:56:23;;;;;;;5.65;4.15;;;13.20;99.90;;;;;;5048534;28;20037;-67
2021/09/17 03:58:49;;;;;;;3.88;3.53;;;13.20;99.90;;;;;;5034132;28;20486;-67
2021/09/17 04:01:14;;;;;;;4.93;3.38;;;13.20;99.90;;;;;;5034052;28;20033;-68
2021/09/17 04:03:40;;;;;;;5.72;3.75;;;13.20;99.90;;;;;;5033567;28;20154;-67
2021/09/17 04:06:06;;;;;;;4.15;3.75;;;13.30;99.90;;;;;;5033911;28;20029;-67
2021/09/17 04:08:32;;;;;;;4.32;3.67;;;13.30;99.90;;;;;;5033670;28;20030;-67
2021/09/17 04:10:57;;;;;;;4.43;3.63;;;13.30;99.90;;;;;;5036840;28;20040;-67
2021/09/17 04:13:23;;;;;;;5.35;3.42;;;13.30;99.90;;;;;;5033693;28;20495;-67
2021/09/17 04:15:48;;;;;;;4.00;3.55;;;13.30;99.90;;;;;;5040490;28;20378;-67
2021/09/17 04:18:15;;;;;;;4.13;3.67;;;13.30;99.90;;;;;;5052034;28;20033;-68
2021/09/17 04:20:41;;;;;;;7.10;4.05;;;13.30;99.90;;;;;;5052773;28;20557;-67
2021/09/17 04:23:07;;;;;;;5.15;4.65;;;13.30;99.90;;;;;;5053470;28;20056;-67
2021/09/17 04:25:32;;;;;;;7.22;5.20;;;13.30;99.90;;;;;;5052612;28;20033;-67
2021/09/17 04:27:58;;;;;;;7.28;5.60;;;13.40;99.90;;;;;;5036988;28;20096;-67
2021/09/17 04:30:24;;;;;;;5.88;5.30;;;13.30;99.90;;;;;;5033251;28;20522;-67
2021/09/17 04:32:49;;;;;;;6.53;5.57;;;13.30;99.90;;;;;;5033642;28;20053;-68
2021/09/17 04:35:16;;;;;;;7.90;6.78;;;13.30;99.90;;;;;;5033643;28;20061;-68
2021/09/17 04:37:47;;;;;;;6.68;5.90;;;13.40;99.90;;;;;;5032686;28;20033;-68
2021/09/17 04:40:15;;;;;;;8.38;6.13;;;13.30;99.90;;;;;;5033773;28;20028;-68
2021/09/17 04:42:40;;;;;;;10.35;6.90;;;13.30;99.90;;;;;;5052216;28;20053;-67
2021/09/17 04:45:08;;;;;;;6.78;6.07;;;13.30;99.90;;;;;;5037580;28;20049;-67
2021/09/17 04:47:33;;;;;;;8.00;6.18;;;13.20;99.90;;;;;;5051174;28;20470;-67
2021/09/17 04:50:02;;;;;;;8.18;7.18;;;13.20;99.90;;;;;;5051864;28;20040;-67
2021/09/17 04:52:27;;;;;;;8.35;6.68;;;13.20;99.90;;;;;;5052538;28;20087;-67
2021/09/17 04:54:53;;;;;;;8.13;6.85;;;13.10;99.90;;;;;;5053307;28;20025;-67
2021/09/17 04:57:19;;;;;;;8.68;6.53;;;13.10;99.90;;;;;;5039670;28;20087;-67
2021/09/17 04:59:45;;;;;;;7.85;6.47;;;13.00;99.90;;;;;;5041315;28;20936;-68
2021/09/17 05:02:11;;;;;;;11.13;6.38;;;13.00;99.90;;;;;;5048683;28;20025;-68
2021/09/17 05:04:36;;;;;;;9.30;5.15;;;12.90;99.90;;;;;;5052212;28;20025;-68
2021/09/17 05:07:02;;;;;;;8.50;5.22;;;12.90;99.90;;;;;;5046777;28;20047;-68
2021/09/17 05:09:30;;;;;;;6.35;5.25;;;12.90;99.90;;;;;;5057243;28;20074;-68
2021/09/17 05:11:56;;;;;;;9.57;5.35;;;12.90;99.90;;;;;;5038530;28;20546;-69
2021/09/17 05:14:22;;;;;;;8.35;5.72;;;12.80;99.90;;;;;;5032514;28;20459;-68
2021/09/17 05:16:48;;;;;;;6.97;5.53;;;12.70;99.90;;;;;;5032808;28;20044;-68
2021/09/17 05:19:14;;;;;;;6.85;6.13;;;12.60;99.90;;;;;;5032823;28;20111;-68
2021/09/17 05:21:40;;;;;;;7.25;6.55;;;12.60;99.90;;;;;;5031564;28;20030;-68
2021/09/17 05:24:05;;;;;;;8.80;7.05;;;12.50;99.90;;;;;;5032877;28;20030;-68
2021/09/17 05:26:31;;;;;;;7.55;6.78;;;12.50;99.90;;;;;;5034921;28;20025;-68
2021/09/17 05:28:57;;;;;;;8.80;6.70;;;12.40;99.90;;;;;;5052827;28;20133;-68
2021/09/17 05:31:22;;;;;;;13.95;7.20;;;12.40;99.90;;;;;;5051590;28;20033;-68
2021/09/17 05:33:48;;;;;;;7.18;6.35;;;12.40;99.90;;;;;;5052123;28;20064;-68
2021/09/17 05:36:14;;;;;;;7.97;6.45;;;12.40;99.90;;;;;;5048167;28;20044;-68
2021/09/17 05:38:39;;;;;;;7.53;6.70;;;12.40;99.90;;;;;;5044519;28;20120;-68
2021/09/17 05:41:05;;;;;;;10.50;6.32;;;12.40;99.90;;;;;;5038495;28;20090;-69
2021/09/17 05:43:31;;;;;;;8.35;6.63;;;12.40;99.90;;;;;;5051034;28;20132;-69
2021/09/17 05:45:56;;;;;;;7.53;6.20;;;12.50;99.90;;;;;;5036559;28;20041;-70
2021/09/17 05:48:25;;;;;;;10.05;6.47;;;12.50;99.90;;;;;;5032272;28;20041;-69
2021/09/17 05:50:51;;;;;;;6.88;6.28;;;12.60;99.90;;;;;;5031662;28;20475;-69
2021/09/17 05:53:17;;;;;;;10.52;5.88;;;12.70;99.90;;;;;;5032172;28;20026;-69
2021/09/17 05:55:43;;;;;;;6.75;6.15;;;12.70;99.90;;;;;;5031395;28;20037;-70
2021/09/17 05:58:09;;;;;;;8.77;5.70;;;12.80;99.90;;;;;;5038748;28;20494;-70
2021/09/17 06:00:35;;;;;;;6.85;6.13;;;12.90;99.90;;;;;;5040388;28;20037;-70
2021/09/17 06:03:01;;;;;;;6.30;5.40;;;12.90;99.90;;;;;;5051899;28;20100;-70
2021/09/17 06:05:27;;;;;;;7.47;4.97;;;13.00;99.90;;;;;;5051344;28;20355;-70
2021/09/17 06:07:53;;;;;;;6.38;5.13;;;13.10;99.90;;;;;;5063388;28;20367;-70
2021/09/17 06:10:19;;;;;;;6.28;5.03;;;13.20;99.90;;;;;;5067437;28;20068;-70
2021/09/17 06:12:45;;;;;;;6.22;5.63;;;13.30;99.90;;;;;;5043405;28;20872;-69
2021/09/17 06:15:13;;;;;;;10.52;5.93;;;13.40;99.90;;;;;;5051724;28;20108;-70
2021/09/17 06:17:42;;;;;;;6.60;5.03;;;13.50;99.90;;;;;;5050669;28;20032;-70
2021/09/17 06:20:10;;;;;;;6.63;5.00;;;13.60;99.90;;;;;;5046898;28;20013;-70
2021/09/17 06:22:36;;;;;;;5.60;5.00;;;13.60;99.90;;;;;;5030042;28;20065;-70
2021/09/17 06:25:02;;;;;;;8.98;5.32;;;13.70;99.90;;;;;;5031609;28;20067;-70
2021/09/17 06:27:28;;;;;;;8.82;5.72;;;13.80;99.90;;;;;;5032872;28;20037;-68
2021/09/17 06:29:53;;;;;;;7.13;5.32;;;13.90;99.90;;;;;;5049556;28;20132;-70
2021/09/17 06:32:19;;;;;;;5.20;4.70;;;13.90;99.90;;;;;;5051784;28;20103;-69
2021/09/17 06:34:45;;;;;;;5.90;4.97;;;14.00;99.90;;;;;;5050660;28;20025;-70
2021/09/17 06:37:11;;;;;;;5.60;5.05;;;14.00;99.90;;;;;;5056558;28;20100;-70
2021/09/17 06:39:36;;;;;;;8.75;6.13;;;14.10;99.90;;;;;;5031002;28;20056;-69
2021/09/17 06:42:02;;;;;;;9.00;6.35;;;14.20;99.90;;;;;;5035132;28;20055;-70
2021/09/17 06:44:29;;;;;;;7.18;5.45;;;14.30;99.90;;;;;;5031822;28;20503;-69
2021/09/17 06:46:55;;;;;;;7.75;5.72;;;14.30;99.90;;;;;;5031316;28;20479;-70
2021/09/17 06:49:21;;;;;;;5.60;4.82;;;14.40;99.90;;;;;;5030803;28;20064;-73
2021/09/17 06:51:47;;;;;;;9.18;6.45;;;14.40;99.90;;;;;;5042737;28;20112;-71
2021/09/17 06:54:12;;;;;;;8.63;6.00;;;14.60;99.90;;;;;;5051248;28;20029;-72
2021/09/17 06:56:38;;;;;;;6.80;6.05;;;14.70;99.90;;;;;;5049671;28;20059;-71
2021/09/17 06:59:04;;;;;;;7.32;6.07;;;14.70;99.90;;;;;;5031791;28;20073;-76
2021/09/17 07:01:29;;;;;;;10.10;6.40;;;14.80;99.90;;;;;;5031330;28;20022;-82
2021/09/17 07:03:55;;;;;;;7.90;6.80;;;14.90;99.90;;;;;;5037253;28;20095;-76
2021/09/17 07:06:21;;;;;;;9.95;6.90;;;15.00;99.90;;;;;;5031094;28;20505;-75
2021/09/17 07:08:46;;;;;;;11.23;7.00;;;15.10;99.90;;;;;;5053814;28;20155;-77
2021/09/17 07:11:12;;;;;;;7.28;6.22;;;15.20;99.90;;;;;;5043698;28;20467;-76
2021/09/17 07:13:40;;;;;;;9.68;7.13;;;15.20;99.90;;;;;;5050464;28;20057;-77
2021/09/17 07:16:05;;;;;;;9.48;6.85;;;15.30;99.90;;;;;;5051193;28;20033;-75
2021/09/17 07:18:31;;;;;;;9.00;6.93;;;15.30;99.90;;;;;;5050780;28;20029;-81
2021/09/17 07:20:57;;;;;;;11.55;7.30;;;15.50;99.90;;;;;;5050430;28;20025;-75
2021/09/17 07:23:23;;;;;;;10.75;7.38;;;15.50;99.90;;;;;;5049747;28;20033;-75
2021/09/17 07:25:49;;;;;;;9.40;6.82;;;15.50;99.90;;;;;;5044248;28;20530;-75
2021/09/17 07:28:14;;;;;;;11.55;7.55;;;15.60;99.90;;;;;;5040796;28;20069;-75
2021/09/17 07:30:40;;;;;;;10.65;8.10;;;15.70;99.90;;;;;;5051044;28;20033;-78
2021/09/17 07:33:06;;;;;;;11.35;7.38;;;15.70;99.90;;;;;;5055399;28;20024;-80
2021/09/17 07:35:32;;;;;;;9.38;7.57;;;15.80;99.90;;;;;;5054191;28;20056;-79
2021/09/17 07:37:59;;;;;;;15.00;7.75;;;15.90;99.90;;;;;;5053729;28;20052;-78
2021/09/17 07:40:27;;;;;;;11.30;7.80;;;16.00;99.90;;;;;;5034835;28;20029;-86
2021/09/17 07:42:53;;;;;;;14.43;8.15;;;16.00;99.90;;;;;;5063165;28;20129;-83
2021/09/17 07:45:21;;;;;;;10.07;7.22;;;16.10;99.90;;;;;;5048747;28;20484;-80
2021/09/17 07:47:47;;;;;;;12.45;7.88;;;16.10;99.90;;;;;;5054817;28;20029;-76
2021/09/17 07:50:17;;;;;;;9.77;7.53;;;16.10;99.90;;;;;;5055323;28;20028;-76
2021/09/17 07:52:44;;;;;;;11.18;8.65;;;16.10;99.90;;;;;;5034769;28;20035;-77
2021/09/17 07:55:10;;;;;;;12.25;9.05;;;16.20;99.90;;;;;;5047430;28;20032;-77
2021/09/17 07:57:37;;;;;;;10.70;8.38;;;16.30;99.90;;;;;;5034242;28;20029;-78
2021/09/17 08:00:05;;;;;;;12.30;9.20;;;16.40;99.90;;;;;;5054182;28;20053;-77
2021/09/17 08:02:31;;;;;;;18.95;9.98;;;16.50;99.90;;;;;;5054131;28;20378;-78
2021/09/17 08:04:56;;;;;;;13.23;9.18;;;16.60;99.90;;;;;;5054063;28;20029;-76
2021/09/17 08:07:22;;;;;;;12.32;8.98;;;16.70;99.90;;;;;;5060993;28;20371;-73
2021/09/17 08:09:47;;;;;;;13.13;8.40;;;16.80;99.90;;;;;;5077055;28;20492;-75
2021/09/17 08:12:13;;;;;;;12.45;9.43;;;16.70;99.90;;;;;;5052734;28;20037;-76
2021/09/17 08:14:39;;;;;;;9.93;8.23;;;16.70;99.90;;;;;;5054153;28;20098;-76
2021/09/17 08:17:04;;;;;;;13.02;9.00;;;16.90;99.90;;;;;;5053974;28;20025;-75
2021/09/17 08:19:30;;;;;;;12.20;9.77;;;17.00;99.90;;;;;;5054322;28;20037;-74
2021/09/17 08:21:56;;;;;;;11.57;8.88;;;17.00;99.90;;;;;;5052628;28;20830;-78
2021/09/17 08:24:21;;;;;;;12.88;9.52;;;17.10;99.90;;;;;;5054007;28;20036;-79
2021/09/17 08:26:50;;;;;;;11.13;8.25;;;17.10;99.90;;;;;;5054074;28;20489;-74
2021/09/17 08:29:16;;;;;;;10.57;8.82;;;17.10;99.90;;;;;;5054224;28;20114;-77
2021/09/17 08:31:44;;;;;;;12.05;8.35;;;17.10;99.90;;;;;;5051361;28;20151;-78
2021/09/17 08:34:10;;;;;;;15.65;8.45;;;17.20;99.90;;;;;;5054045;28;20036;-79
2021/09/17 08:36:37;;;;;;;12.18;8.00;;;17.40;99.90;;;;;;5053965;28;20037;-78
2021/09/17 08:39:04;;;;;;;11.13;8.63;;;17.40;99.90;;;;;;5043281;28;20029;-78
2021/09/17 08:41:30;;;;;;;15.20;8.30;;;17.50;99.90;;;;;;5043514;28;20379;-78
2021/09/17 08:43:56;;;;;;;14.48;9.00;;;17.60;99.90;;;;;;5051213;28;20109;-78
2021/09/17 08:46:23;;;;;;;9.88;7.15;;;17.60;99.90;;;;;;5052622;28;20040;-77
2021/09/17 08:48:49;;;;;;;8.25;7.05;;;17.70;99.90;;;;;;5049691;28;20126;-78
2021/09/17 08:51:16;;;;;;;10.57;7.80;;;17.80;99.90;;;;;;5033594;28;20033;-78
2021/09/17 08:53:41;;;;;;;12.00;7.70;;;17.90;99.90;;;;;;5032734;28;20030;-78
2021/09/17 08:56:08;;;;;;;13.07;7.55;;;18.00;99.90;;;;;;5052550;28;20035;-78
2021/09/17 08:58:34;;;;;;;12.90;8.32;;;18.00;99.90;;;;;;5053919;28;20067;-77
2021/09/17 09:01:00;;;;;;;15.13;8.43;;;18.10;99.90;;;;;;5041943;28;20056;-76
2021/09/17 09:03:28;;;;;;;11.40;8.88;;;18.10;99.90;;;;;;5033467;28;20471;-78
2021/09/17 09:05:54;;;;;;;12.02;8.93;;;18.20;99.90;;;;;;5032470;28;20034;-77
2021/09/17 09:08:26;;;;;;;17.08;9.65;;;18.20;99.90;;;;;;5063525;28;20074;-77
2021/09/17 09:10:53;;;;;;;11.95;8.55;;;18.20;99.90;;;;;;5062890;28;20025;-78
2021/09/17 09:13:19;;;;;;;12.23;9.15;;;18.10;99.90;;;;;;5053149;28;20029;-78
2021/09/17 09:15:44;;;;;;;16.17;8.70;;;18.00;99.90;;;;;;5050642;28;20037;-77
2021/09/17 09:18:14;;;;;;;12.25;7.53;;;18.00;99.90;;;;;;5041594;28;20024;-77
2021/09/17 09:20:43;;;;;;;13.18;9.27;;;18.10;99.90;;;;;;5031936;28;20063;-78
2021/09/17 09:23:23;;;;;;;19.08;9.77;;;18.20;99.90;;;;;;5032955;28;20033;-77
2021/09/17 09:25:49;;;;;;;11.43;9.18;;;18.20;99.90;;;;;;5033258;28;20491;-77
2021/09/17 09:28:17;;;;;;;16.10;11.52;;;18.30;99.90;;;;;;5032746;28;20037;-77
2021/09/17 09:30:43;;;;;;;19.83;10.35;;;18.50;99.90;;;;;;5043496;28;20035;-76
2021/09/17 09:33:30;;;;;;;15.93;10.70;;;18.70;99.90;;;;;;5052725;28;20025;-77
2021/09/17 09:36:04;;;;;;;12.15;9.60;;;18.70;99.90;;;;;;5044758;28;20298;-77
2021/09/17 09:38:34;;;;;;;13.98;9.02;;;18.60;99.90;;;;;;5055056;28;20489;-77
2021/09/17 09:41:02;;;;;;;17.35;9.63;;;18.70;99.90;;;;;;5046096;28;20033;-77
2021/09/17 09:43:30;;;;;;;13.50;10.13;;;18.90;99.90;;;;;;5031451;28;20537;-76
2021/09/17 09:46:19;;;;;;;12.50;8.85;;;19.00;99.90;;;;;;5042978;28;20580;-77
2021/09/17 09:49:00;;;;;;;15.43;9.32;;;19.20;99.90;;;;;;5052750;28;20056;-77
2021/09/17 09:51:27;;;;;;;13.45;8.52;;;19.30;99.90;;;;;;5033917;28;20025;-76
2021/09/17 09:53:53;;;;;;;12.27;7.95;;;19.40;99.90;;;;;;5033636;28;20036;-77
2021/09/17 09:56:20;;;;;;;17.17;8.80;;;19.50;99.90;;;;;;5053744;28;20056;-76
2021/09/17 09:58:48;;;;;;;13.32;8.93;;;19.60;99.90;;;;;;5054012;28;20021;-78
2021/09/17 10:01:16;;;;;;;12.75;8.90;;;19.70;99.90;;;;;;5034718;28;20030;-76
2021/09/17 10:03:43;;;;;;;15.10;8.20;;;19.80;99.90;;;;;;5031553;28;20435;-77
2021/09/17 10:06:09;;;;;;;13.15;8.77;;;19.80;99.90;;;;;;5032294;28;20026;-76
2021/09/17 10:08:35;;;;;;;15.20;9.07;;;19.90;99.90;;;;;;5066456;28;20355;-76
2021/09/17 10:11:01;;;;;;;20.80;8.98;;;19.80;99.90;;;;;;5055483;28;20033;-78
2021/09/17 10:13:27;;;;;;;13.15;8.85;;;20.00;99.90;;;;;;5032446;28;20038;-78
2021/09/17 10:15:53;;;;;;;13.40;8.68;;;20.00;99.90;;;;;;5031698;28;20060;-78
2021/09/17 10:18:19;;;;;;;14.68;9.68;;;20.00;99.90;;;;;;5031676;28;20471;-78
2021/09/17 10:20:45;;;;;;;14.02;7.32;;;19.90;99.90;;;;;;5038432;28;20029;-78
2021/09/17 10:23:31;;;;;;;9.65;7.95;;;20.00;99.90;;;;;;5038423;28;20021;-79
2021/09/17 10:26:09;;;;;;;14.38;7.72;;;20.10;99.90;;;;;;5047305;28;20641;-77
2021/09/17 10:29:04;;;;;;;12.52;7.97;;;20.20;99.70;;;;;;5052980;28;20029;-77
2021/09/17 10:31:44;;;;;;;11.38;7.53;;;20.20;99.30;;;;;;5049000;28;20044;-77
2021/09/17 10:34:32;;;;;;;13.23;8.07;;;20.30;99.20;;;;;;5051696;28;20100;-77
2021/09/17 10:36:58;;;;;;;7.60;6.80;;;20.60;97.90;;;;;;5057750;28;20028;-86
2021/09/17 10:39:24;;;;;;;8.23;7.03;;;20.70;97.00;;;;;;5057107;28;20483;-81
2021/09/17 10:42:09;;;;;;;12.65;7.50;;;20.60;96.40;;;;;;5040386;28;20104;-78
2021/09/17 10:45:01;;;;;;;11.60;7.18;;;20.70;97.00;;;;;;5038727;28;20024;-77
2021/09/17 10:47:46;;;;;;;10.80;7.05;;;20.60;96.70;;;;;;5026203;28;20049;-77
2021/09/17 10:50:14;;;;;;;13.32;6.93;;;20.70;94.90;;;;;;5033504;28;20040;-77
2021/09/17 10:52:48;;;;;;;15.88;7.53;;;20.60;95.20;;;;;;5052000;28;20025;-80
2021/09/17 10:55:45;;;;;;;11.23;5.65;;;20.50;95.00;;;;;;5039038;28;20498;-78
2021/09/17 10:58:26;;;;;;;6.90;5.43;;;20.50;95.20;;;;;;5037610;28;20371;-76
2021/09/17 11:01:03;;;;;;;7.38;5.40;;;20.60;93.80;;;;;;5059800;28;20028;-81
2021/09/17 11:03:50;;;;;;;9.02;5.63;;;20.60;93.60;;;;;;5057390;28;20462;-77
2021/09/17 11:06:18;;;;;;;9.77;5.88;;;20.60;92.80;;;;;;5055212;28;20030;-74
2021/09/17 11:08:44;;;;;;;6.65;5.57;;;20.60;91.40;;;;;;5082873;28;20036;-76
2021/09/17 11:11:23;;;;;;;7.55;5.85;;;20.50;90.60;;;;;;5047135;28;20459;-75
2021/09/17 11:13:49;;;;;;;7.85;5.72;;;20.30;90.90;;;;;;5034426;28;20048;-73
2021/09/17 11:16:19;;;;;;;7.00;5.63;;;20.20;92.00;;;;;;5035256;28;20037;-74
2021/09/17 11:18:57;;;;;;;6.53;4.80;;;20.10;91.50;;;;;;5050066;28;20462;-76
2021/09/17 11:21:23;;;;;;;7.07;6.05;;;20.00;91.60;;;;;;5044217;28;20021;-78
2021/09/17 11:23:50;;;;;;;9.10;5.30;;;20.00;92.20;;;;;;5053966;28;20067;-78
2021/09/17 11:26:22;;;;;;;8.13;5.03;;;20.00;92.60;;;;;;5054091;28;20427;-78
2021/09/17 11:29:08;;;;;;;9.02;5.78;;;20.10;93.20;;;;;;5052810;28;20060;-78
2021/09/17 11:31:35;;;;;;;8.55;5.20;;;20.20;91.70;;;;;;5053187;28;20090;-79
2021/09/17 11:34:06;;;;;;;6.75;3.58;;;20.20;91.20;;;;;;5036510;28;20156;-78
2021/09/17 11:36:40;;;;;;;6.82;4.43;;;20.20;91.90;;;;;;5033307;28;20055;-78
2021/09/17 11:39:21;;;;;;;6.07;4.20;;;20.20;90.50;;;;;;5049506;28;20051;-77
2021/09/17 11:41:51;;;;;;;10.15;3.90;;;20.30;90.00;;;;;;5038911;28;20087;-77
2021/09/17 11:44:35;;;;;;;5.47;3.35;;;20.30;90.40;;;;;;5054246;28;20048;-76
2021/09/17 11:47:08;;;;;;;7.55;3.97;;;20.40;90.30;;;;;;5067414;28;20262;-76
2021/09/17 11:49:37;;;;;;;7.38;3.97;;;20.50;89.50;;;;;;5059507;28;20041;-76
2021/09/17 11:52:06;;;;;;;5.63;3.35;;;20.60;88.00;;;;;;5053668;28;20041;-76
2021/09/17 11:54:32;;;;;;;5.40;3.35;;;20.70;85.80;;;;;;5050330;28;20034;-77
2021/09/17 11:57:10;;;;;;;7.85;3.58;;;20.70;85.70;;;;;;5047300;28;20044;-76
2021/09/17 11:59:46;;;;;;;7.63;3.53;;;20.70;84.70;;;;;;5053751;28;20040;-76
2021/09/17 12:02:27;;;;;;;4.05;3.17;;;20.80;80.40;;;;;;5052417;28;20033;-76
2021/09/17 12:04:53;;;;;;;6.43;3.95;;;20.80;81.20;;;;;;5052907;28;20044;-76
2021/09/17 12:07:20;;;;;;;5.05;3.90;;;20.80;81.40;;;;;;5059362;28;20085;-75
2021/09/17 12:09:46;;;;;;;5.00;3.53;;;20.90;79.50;;;;;;5072403;28;20039;-77
2021/09/17 12:12:13;;;;;;;3.38;3.08;;;21.00;81.50;;;;;;5053944;28;20417;-75
2021/09/17 12:14:48;;;;;;;5.82;3.35;;;20.90;78.80;;;;;;5054374;28;20017;-76
2021/09/17 12:17:14;;;;;;;5.40;2.85;;;20.90;77.90;;;;;;5036881;28;20053;-75
2021/09/17 12:20:00;;;;;;;6.15;3.30;;;21.00;79.70;;;;;;5034193;28;20111;-77
2021/09/17 12:22:36;;;;;;;4.47;3.25;;;21.10;79.50;;;;;;5048688;28;20417;-68
2021/09/17 12:25:09;;;;;;;4.68;2.47;;;21.10;75.00;;;;;;5039977;28;20036;-68
2021/09/17 12:27:36;;;;;;;3.90;2.20;;;21.00;75.80;;;;;;5033909;28;20038;-68
2021/09/17 12:30:08;;;;;;;2.75;2.17;;;21.10;73.50;;;;;;5049002;28;20028;-68
2021/09/17 12:32:34;;;;;;;4.22;2.22;;;21.20;71.90;;;;;;5036712;28;20513;-68
2021/09/17 12:35:12;;;;;;;7.78;2.13;;;21.20;70.60;;;;;;5035622;28;20703;-68
2021/09/17 12:37:40;;;;;;;4.60;2.03;;;21.20;69.20;;;;;;5063640;28;20428;-73
2021/09/17 12:40:08;;;;;;;3.33;1.88;;;21.10;70.60;;;;;;5073871;28;20028;-74
2021/09/17 12:42:34;;;;;;;3.00;2.30;;;21.00;70.30;;;;;;5052041;28;20120;-77
2021/09/17 12:45:02;;;;;;;2.83;2.22;;;20.90;70.50;;;;;;5033004;28;20033;-76